Terminal Aerodrome Forecast
Issued by NWS

Home | Current Version | Previous Version | Text Only | Print | Product List | Glossary On
Versions: 1 2 3 4 5 6 7 8 9 10 11 12 13 14 15 16 17 18
220
FTUS42 KKEY 230737 AAA
TAFMTH
TAF AMD
KMTH 230737Z 2308/2406 12009G16KT P6SM -RA SCT015 OVC100
      TEMPO 2308/2310 4SM SHRA BKN014
     FM231000 14009KT P6SM -SHRA SCT028 BKN050 OVC150
     FM231300 17006KT P6SM FEW020 BKN060
     FM231600 25007KT P6SM FEW020=

USA.gov is the U.S. government's official web portal to all federal, state and local government web resources and services.